createdAt,value
2022-12-26T00:02:01.009Z,3.22
2022-12-26T00:04:48.930Z,3.35
2022-12-26T00:07:15.750Z,3.13
2022-12-26T00:09:42.916Z,3.50
2022-12-26T00:12:10.036Z,3.50
2022-12-26T00:14:37.344Z,3.15
2022-12-26T00:17:04.759Z,3.35
2022-12-26T00:19:31.924Z,2.72
2022-12-26T00:21:59.216Z,1.85
2022-12-26T00:24:26.627Z,2.97
2022-12-26T00:26:53.863Z,2.45
2022-12-26T00:29:21.184Z,4.05
2022-12-26T00:31:49.928Z,2.45
2022-12-26T00:34:17.211Z,2.55
2022-12-26T00:36:44.428Z,3.43
2022-12-26T00:39:12.273Z,2.33
2022-12-26T00:41:39.493Z,3.47
2022-12-26T00:44:06.662Z,2.83
2022-12-26T00:46:33.902Z,3.65
2022-12-26T00:49:01.213Z,3.23
2022-12-26T00:51:28.327Z,3.13
2022-12-26T00:53:55.524Z,3.17
2022-12-26T00:56:22.735Z,2.40
2022-12-26T00:58:49.951Z,3.47
2022-12-26T01:01:20.777Z,3.10
2022-12-26T01:03:49.429Z,3.03
2022-12-26T01:06:17.353Z,3.33
2022-12-26T01:08:44.531Z,3.05
2022-12-26T01:11:13.828Z,3.30
2022-12-26T01:13:41.532Z,4.30
2022-12-26T01:16:09.384Z,2.95
2022-12-26T01:18:36.958Z,3.65
2022-12-26T01:21:08.434Z,2.92
2022-12-26T01:23:35.712Z,4.20
2022-12-26T01:26:16.528Z,3.23
2022-12-26T01:28:48.767Z,2.85
2022-12-26T01:31:16.212Z,5.25
2022-12-26T01:33:43.330Z,3.85
2022-12-26T01:36:10.472Z,3.17
2022-12-26T01:38:38.094Z,4.57
2022-12-26T01:41:17.787Z,4.20
2022-12-26T01:43:53.312Z,3.97
2022-12-26T01:46:25.072Z,2.40
2022-12-26T01:48:52.974Z,4.38
2022-12-26T01:51:24.100Z,5.00
2022-12-26T01:53:54.566Z,4.72
2022-12-26T01:56:32.965Z,3.55
2022-12-26T01:59:09.162Z,4.38
2022-12-26T02:01:42.293Z,4.82
2022-12-26T02:04:34.468Z,2.87
2022-12-26T02:07:04.637Z,3.90
2022-12-26T02:09:32.785Z,6.40
2022-12-26T02:14:52.207Z,3.95
2022-12-26T02:17:20.132Z,4.03
2022-12-26T02:19:51.474Z,5.78
2022-12-26T02:28:48.584Z,4.75
2022-12-26T02:34:41.030Z,3.40
2022-12-26T02:37:14.838Z,5.03
2022-12-26T02:39:53.129Z,5.10
2022-12-26T02:42:35.493Z,3.63
2022-12-26T02:45:47.073Z,3.93
2022-12-26T02:48:31.774Z,4.43
2022-12-26T02:51:36.578Z,4.05
2022-12-26T02:54:28.397Z,2.92
2022-12-26T02:57:22.104Z,4.03
2022-12-26T03:00:17.572Z,5.00
2022-12-26T03:03:14.230Z,3.53
2022-12-26T03:06:15.428Z,4.57
2022-12-26T03:09:36.795Z,4.88
2022-12-26T03:12:28.120Z,5.00
2022-12-26T03:15:02.396Z,4.57
2022-12-26T03:17:54.339Z,2.75
2022-12-26T03:20:28.299Z,3.40
2022-12-26T03:23:01.189Z,2.75
2022-12-26T03:25:47.006Z,4.03
2022-12-26T03:28:14.344Z,3.80
2022-12-26T03:30:50.522Z,3.42
2022-12-26T03:33:39.115Z,3.28
2022-12-26T03:36:07.515Z,4.05
2022-12-26T03:39:08.108Z,4.43
2022-12-26T03:42:09.385Z,3.93
2022-12-26T03:45:00.973Z,3.15
2022-12-26T03:48:11.038Z,4.03
2022-12-26T03:51:01.435Z,4.63
2022-12-26T03:54:03.373Z,5.07
2022-12-26T03:56:54.335Z,3.27
2022-12-26T03:59:48.088Z,3.55
2022-12-26T04:02:35.839Z,3.45
2022-12-26T04:05:24.653Z,3.33
2022-12-26T04:08:18.856Z,4.55
2022-12-26T04:11:12.736Z,2.70
2022-12-26T04:14:07.423Z,3.97
2022-12-26T04:17:05.210Z,5.90
2022-12-26T04:19:42.750Z,4.03
2022-12-26T04:22:42.298Z,4.40
2022-12-26T04:28:44.185Z,6.35
2022-12-26T04:34:41.482Z,6.97
2022-12-26T04:37:34.413Z,4.82
2022-12-26T04:40:21.115Z,5.30
2022-12-26T04:43:46.698Z,3.60
2022-12-26T04:45:56.167Z,5.25
2022-12-26T04:48:42.208Z,5.20
2022-12-26T04:51:13.657Z,5.82
2022-12-26T04:53:56.910Z,3.80
2022-12-26T04:56:30.456Z,3.92
2022-12-26T04:59:03.411Z,5.90
2022-12-26T05:01:51.630Z,4.68
2022-12-26T05:04:48.147Z,4.30
2022-12-26T05:07:58.918Z,4.07
2022-12-26T05:10:36.405Z,7.00
2022-12-26T05:13:09.170Z,3.20
2022-12-26T05:16:07.091Z,4.75
2022-12-26T05:19:00.462Z,3.83
2022-12-26T05:21:54.190Z,3.80
2022-12-26T05:24:50.217Z,6.97
2022-12-26T05:27:43.713Z,6.45
2022-12-26T05:30:31.277Z,6.47
2022-12-26T05:33:23.242Z,5.13
2022-12-26T05:36:05.403Z,4.40
2022-12-26T05:49:21.824Z,4.93
2022-12-26T05:51:51.019Z,4.50
2022-12-26T05:54:19.500Z,2.83
2022-12-26T05:56:49.537Z,3.92
2022-12-26T05:59:19.851Z,4.40
2022-12-26T06:01:49.552Z,5.18
2022-12-26T06:04:18.232Z,3.65
2022-12-26T06:06:47.583Z,4.40
2022-12-26T06:09:18.147Z,5.40
2022-12-26T06:11:49.163Z,3.28
2022-12-26T06:14:21.905Z,4.22
2022-12-26T06:16:52.624Z,4.25
2022-12-26T06:19:22.219Z,3.70
2022-12-26T06:21:52.721Z,4.20
2022-12-26T06:24:22.541Z,5.05
2022-12-26T06:26:52.240Z,4.65
2022-12-26T06:29:24.596Z,4.53
2022-12-26T06:31:54.108Z,3.70
2022-12-26T06:34:25.416Z,3.05
2022-12-26T06:36:59.905Z,2.70
2022-12-26T06:39:30.165Z,2.80
2022-12-26T06:41:58.842Z,3.97
2022-12-26T06:44:31.172Z,5.00
2022-12-26T06:47:01.462Z,4.13
2022-12-26T06:49:33.305Z,3.38
2022-12-26T06:52:03.249Z,3.30
2022-12-26T06:54:34.605Z,2.60
2022-12-26T06:57:06.937Z,2.53
2022-12-26T07:02:46.414Z,2.28
2022-12-26T07:05:18.928Z,2.20
2022-12-26T07:10:38.057Z,2.70
2022-12-26T07:13:06.745Z,2.88
2022-12-26T07:15:35.883Z,3.10
2022-12-26T07:18:05.339Z,3.47
2022-12-26T07:20:34.033Z,2.90
2022-12-26T07:23:01.633Z,3.03
2022-12-26T07:25:30.307Z,2.35
2022-12-26T07:27:59.209Z,3.22
2022-12-26T07:30:27.233Z,2.53
2022-12-26T07:32:57.848Z,3.85
2022-12-26T07:35:25.530Z,2.90
2022-12-26T07:37:53.060Z,3.72
2022-12-26T07:40:20.667Z,3.38
2022-12-26T07:42:48.471Z,3.28
2022-12-26T07:45:17.683Z,2.95
2022-12-26T07:48:10.299Z,2.33
2022-12-26T07:50:37.923Z,3.13
2022-12-26T07:53:05.264Z,3.72
2022-12-26T07:55:32.980Z,3.45
2022-12-26T07:58:01.934Z,3.92
2022-12-26T08:00:36.501Z,2.60
2022-12-26T08:03:08.637Z,2.90
2022-12-26T08:05:38.409Z,3.45
2022-12-26T08:08:08.693Z,2.90
2022-12-26T08:10:42.001Z,3.80
2022-12-26T08:13:11.665Z,3.87
2022-12-26T08:15:40.852Z,4.07
2022-12-26T08:18:08.822Z,4.50
2022-12-26T08:29:23.247Z,3.45
2022-12-26T08:31:59.393Z,4.55
2022-12-26T08:37:08.830Z,4.07
2022-12-26T08:39:41.007Z,4.03
2022-12-26T08:42:10.763Z,5.18
2022-12-26T08:44:40.733Z,4.63
2022-12-26T08:47:13.391Z,4.53
2022-12-26T08:49:44.135Z,4.32
2022-12-26T08:52:14.929Z,4.00
2022-12-26T08:54:45.890Z,4.90
2022-12-26T08:59:59.422Z,6.80
2022-12-26T09:05:12.103Z,4.90
2022-12-26T09:07:44.153Z,5.15
2022-12-26T09:10:13.253Z,6.07
2022-12-26T09:12:41.793Z,6.55
2022-12-26T10:03:01.081Z,4.78
2022-12-26T10:05:40.422Z,4.13
2022-12-26T13:21:48.560Z,2.10
2022-12-26T13:56:58.802Z,2.15
2022-12-26T15:46:46.686Z,2.50
2022-12-26T15:49:31.660Z,2.42
2022-12-26T15:55:08.132Z,2.60
2022-12-26T15:58:20.739Z,1.70
2022-12-26T16:00:59.925Z,2.28
2022-12-26T16:10:36.055Z,1.63
2022-12-26T16:16:21.083Z,2.08
2022-12-26T16:18:48.895Z,2.55
2022-12-26T16:21:37.071Z,2.17
2022-12-26T16:24:08.839Z,1.90
2022-12-26T16:26:43.801Z,1.93
2022-12-26T16:29:18.441Z,2.10
2022-12-26T16:31:49.630Z,2.63
2022-12-26T16:34:20.046Z,2.65
2022-12-26T16:40:21.019Z,2.00
2022-12-26T16:43:25.244Z,2.03
2022-12-26T16:45:56.908Z,2.17
2022-12-26T16:55:32.686Z,2.60
2022-12-26T16:58:02.724Z,1.85
2022-12-26T17:00:33.030Z,1.92
2022-12-26T17:03:04.235Z,1.80
2022-12-26T17:05:36.675Z,2.95
2022-12-26T17:08:05.772Z,1.63
2022-12-26T17:10:44.389Z,2.05
2022-12-26T17:13:22.505Z,1.98
2022-12-26T17:16:09.695Z,1.90
2022-12-26T17:22:18.811Z,1.40
2022-12-26T17:24:48.446Z,1.52
2022-12-26T17:27:24.267Z,2.13
2022-12-26T17:29:53.959Z,2.00
2022-12-26T17:32:30.211Z,1.83
2022-12-26T17:35:06.152Z,2.00
2022-12-26T17:37:34.690Z,1.40
2022-12-26T17:40:14.139Z,1.77
2022-12-26T17:42:55.756Z,1.42
2022-12-26T17:45:27.082Z,1.75
2022-12-26T17:47:55.816Z,1.57
2022-12-26T17:50:30.501Z,1.70
2022-12-26T17:56:15.038Z,1.90
2022-12-26T18:01:22.436Z,1.50
2022-12-26T18:06:32.107Z,2.28
2022-12-26T18:09:00.154Z,1.70
2022-12-26T18:11:29.248Z,1.75
2022-12-26T18:13:56.713Z,1.63
2022-12-26T18:16:28.551Z,1.42
2022-12-26T18:18:59.354Z,1.75
2022-12-26T18:21:27.147Z,2.28
2022-12-26T19:02:22.457Z,1.53
2022-12-26T19:04:50.590Z,1.45
2022-12-26T19:07:23.505Z,1.73
2022-12-26T19:09:58.820Z,1.40
2022-12-26T19:12:26.257Z,2.28
2022-12-26T19:17:32.855Z,1.58
2022-12-26T19:20:01.561Z,2.03
2022-12-26T19:22:29.513Z,1.60
2022-12-26T19:24:57.232Z,1.80
2022-12-26T19:27:24.697Z,2.20
2022-12-26T19:29:52.439Z,2.10
2022-12-26T19:32:20.443Z,2.25
2022-12-26T19:34:49.064Z,2.17
2022-12-26T19:37:16.953Z,2.25
2022-12-26T19:39:50.963Z,1.90
2022-12-26T19:42:18.827Z,1.83
2022-12-26T19:44:46.425Z,1.80
2022-12-26T19:47:13.970Z,1.80
2022-12-26T19:49:42.193Z,2.00
2022-12-26T19:52:13.744Z,1.40
2022-12-26T19:54:41.171Z,1.73
2022-12-26T19:57:09.091Z,2.00
2022-12-26T19:59:37.016Z,2.53
2022-12-26T20:02:05.184Z,2.03
2022-12-26T20:04:32.612Z,1.80
2022-12-26T20:07:01.237Z,1.88
2022-12-26T20:09:29.236Z,2.33
2022-12-26T20:11:57.358Z,1.40
2022-12-26T20:14:27.504Z,2.03
2022-12-26T20:17:06.023Z,1.73
2022-12-26T20:22:12.964Z,1.83
2022-12-26T20:24:40.417Z,1.77
2022-12-26T20:27:07.948Z,2.10
2022-12-26T20:29:35.685Z,1.60
2022-12-26T20:32:03.064Z,1.80
2022-12-26T20:34:30.513Z,2.00
2022-12-26T20:36:57.968Z,1.60
2022-12-26T20:39:25.767Z,2.45
2022-12-26T20:41:54.056Z,1.57
2022-12-26T20:44:21.627Z,1.70
2022-12-26T20:47:04.589Z,1.77
2022-12-26T20:49:31.830Z,1.20
2022-12-26T20:51:59.499Z,2.05
2022-12-26T20:54:27.296Z,1.37
2022-12-26T20:56:55.181Z,1.88
2022-12-26T20:59:22.544Z,2.00
2022-12-26T21:01:50.112Z,1.42
2022-12-26T21:04:20.310Z,2.22
2022-12-26T21:06:49.128Z,1.73
2022-12-26T21:09:16.850Z,1.35
2022-12-26T21:11:46.254Z,1.63
2022-12-26T21:14:17.526Z,1.50
2022-12-26T21:16:51.450Z,1.88
2022-12-26T21:19:20.142Z,1.47
2022-12-26T21:21:50.452Z,1.90
2022-12-26T21:24:23.555Z,1.80
2022-12-26T21:26:50.903Z,1.60
2022-12-26T21:29:22.541Z,2.30
2022-12-26T21:31:50.308Z,1.73
2022-12-26T21:34:22.190Z,1.40
2022-12-26T21:37:09.736Z,1.85
2022-12-26T21:39:38.802Z,1.80
2022-12-26T21:45:35.977Z,1.80
2022-12-26T21:48:04.177Z,1.40
2022-12-26T21:53:09.380Z,1.10
2022-12-26T21:55:48.611Z,1.80
2022-12-26T21:58:17.014Z,1.30
2022-12-26T22:00:45.900Z,1.50
2022-12-26T22:03:32.082Z,2.03
2022-12-26T22:05:59.944Z,1.88
2022-12-26T22:08:27.523Z,2.00
2022-12-26T22:11:13.518Z,1.60
2022-12-26T22:13:42.515Z,1.60
2022-12-26T22:18:55.992Z,1.83
2022-12-26T22:21:24.878Z,1.63
2022-12-26T22:26:46.843Z,1.38
2022-12-26T22:29:14.191Z,1.90
2022-12-26T22:31:42.065Z,2.25
2022-12-26T22:34:15.942Z,1.98
2022-12-26T22:36:44.575Z,1.75
2022-12-26T22:39:17.348Z,1.65
2022-12-26T22:41:46.157Z,1.92
2022-12-26T22:44:14.007Z,2.10
2022-12-26T22:46:42.851Z,1.50
2022-12-26T22:49:10.533Z,2.08
2022-12-26T22:51:38.505Z,1.40
2022-12-26T22:57:57.746Z,1.60
2022-12-26T23:00:28.457Z,1.95
2022-12-26T23:02:56.172Z,1.95
2022-12-26T23:05:24.046Z,1.80
2022-12-26T23:08:02.806Z,1.98
2022-12-26T23:10:32.815Z,1.75
2022-12-26T23:13:00.901Z,1.80
2022-12-26T23:19:17.807Z,2.00
2022-12-26T23:21:49.052Z,1.73
2022-12-26T23:24:23.180Z,1.88
2022-12-26T23:26:53.321Z,1.98
2022-12-26T23:29:41.690Z,1.60
2022-12-26T23:32:13.186Z,2.08
2022-12-26T23:35:26.582Z,2.00
2022-12-26T23:37:55.622Z,1.98
2022-12-26T23:45:45.109Z,1.70
2022-12-26T23:48:12.993Z,2.00
2022-12-26T23:50:41.099Z,2.55
2022-12-26T23:53:09.458Z,1.88
2022-12-26T23:55:41.924Z,2.15
2022-12-26T23:58:23.543Z,1.65
